sensor_id;sensor_type;location;lat;lon;timestamp;P1;durP1;ratioP1;P2;durP2;ratioP2
15944;SDS011;30172;48.832;8.732;2023-06-01T00:02:19;3.90;;;2.33;;
15944;SDS011;30172;48.832;8.732;2023-06-01T00:04:44;4.00;;;2.88;;
15944;SDS011;30172;48.832;8.732;2023-06-01T00:07:10;5.65;;;2.67;;
15944;SDS011;30172;48.832;8.732;2023-06-01T00:09:35;5.53;;;2.83;;
15944;SDS011;30172;48.832;8.732;2023-06-01T00:12:01;4.18;;;2.63;;
15944;SDS011;30172;48.832;8.732;2023-06-01T00:14:27;4.97;;;2.72;;
15944;SDS011;30172;48.832;8.732;2023-06-01T00:16:52;5.45;;;3.30;;
15944;SDS011;30172;48.832;8.732;2023-06-01T00:19:18;4.03;;;2.72;;
15944;SDS011;30172;48.832;8.732;2023-06-01T00:21:43;4.47;;;2.97;;
15944;SDS011;30172;48.832;8.732;2023-06-01T00:24:08;4.65;;;2.70;;
15944;SDS011;30172;48.832;8.732;2023-06-01T00:26:34;6.57;;;2.67;;
15944;SDS011;30172;48.832;8.732;2023-06-01T00:28:59;4.85;;;2.50;;
15944;SDS011;30172;48.832;8.732;2023-06-01T00:31:25;7.57;;;2.70;;
15944;SDS011;30172;48.832;8.732;2023-06-01T00:33:50;4.18;;;2.28;;
15944;SDS011;30172;48.832;8.732;2023-06-01T00:36:17;3.20;;;2.22;;
15944;SDS011;30172;48.832;8.732;2023-06-01T00:38:42;6.72;;;2.65;;
15944;SDS011;30172;48.832;8.732;2023-06-01T00:41:07;4.40;;;2.50;;
15944;SDS011;30172;48.832;8.732;2023-06-01T00:43:33;5.45;;;2.63;;
15944;SDS011;30172;48.832;8.732;2023-06-01T00:45:58;3.65;;;2.38;;
15944;SDS011;30172;48.832;8.732;2023-06-01T00:48:23;3.90;;;2.30;;
15944;SDS011;30172;48.832;8.732;2023-06-01T00:50:49;4.70;;;2.78;;
15944;SDS011;30172;48.832;8.732;2023-06-01T00:53:15;5.35;;;2.50;;
15944;SDS011;30172;48.832;8.732;2023-06-01T00:55:42;6.43;;;2.80;;
15944;SDS011;30172;48.832;8.732;2023-06-01T00:58:08;7.07;;;2.42;;
15944;SDS011;30172;48.832;8.732;2023-06-01T01:00:33;4.93;;;2.75;;
15944;SDS011;30172;48.832;8.732;2023-06-01T01:02:58;5.55;;;2.90;;
15944;SDS011;30172;48.832;8.732;2023-06-01T01:05:32;6.28;;;2.80;;
15944;SDS011;30172;48.832;8.732;2023-06-01T01:08:00;5.70;;;2.80;;
15944;SDS011;30172;48.832;8.732;2023-06-01T01:10:39;6.55;;;2.55;;
15944;SDS011;30172;48.832;8.732;2023-06-01T01:13:26;4.45;;;2.28;;
15944;SDS011;30172;48.832;8.732;2023-06-01T01:16:05;6.63;;;2.50;;
15944;SDS011;30172;48.832;8.732;2023-06-01T01:18:35;4.85;;;2.63;;
15944;SDS011;30172;48.832;8.732;2023-06-01T01:21:02;7.35;;;2.55;;
15944;SDS011;30172;48.832;8.732;2023-06-01T01:29:11;3.88;;;2.42;;
15944;SDS011;30172;48.832;8.732;2023-06-01T01:31:38;3.22;;;2.35;;
15944;SDS011;30172;48.832;8.732;2023-06-01T01:34:03;7.95;;;2.40;;
15944;SDS011;30172;48.832;8.732;2023-06-01T01:36:29;3.90;;;2.50;;
15944;SDS011;30172;48.832;8.732;2023-06-01T01:38:55;4.68;;;2.70;;
15944;SDS011;30172;48.832;8.732;2023-06-01T01:41:20;2.85;;;2.25;;
15944;SDS011;30172;48.832;8.732;2023-06-01T01:43:47;4.10;;;2.53;;
15944;SDS011;30172;48.832;8.732;2023-06-01T01:48:59;4.43;;;2.85;;
15944;SDS011;30172;48.832;8.732;2023-06-01T01:54:11;5.15;;;3.20;;
15944;SDS011;30172;48.832;8.732;2023-06-01T01:56:37;5.75;;;2.70;;
15944;SDS011;30172;48.832;8.732;2023-06-01T01:59:03;3.55;;;2.25;;
15944;SDS011;30172;48.832;8.732;2023-06-01T02:01:29;4.47;;;2.90;;
15944;SDS011;30172;48.832;8.732;2023-06-01T02:04:04;4.95;;;2.60;;
15944;SDS011;30172;48.832;8.732;2023-06-01T02:06:32;7.03;;;3.17;;
15944;SDS011;30172;48.832;8.732;2023-06-01T02:08:58;5.72;;;3.22;;
15944;SDS011;30172;48.832;8.732;2023-06-01T02:11:23;5.73;;;2.97;;
15944;SDS011;30172;48.832;8.732;2023-06-01T02:13:48;5.45;;;2.60;;
15944;SDS011;30172;48.832;8.732;2023-06-01T02:16:14;4.43;;;2.67;;
15944;SDS011;30172;48.832;8.732;2023-06-01T02:18:45;3.87;;;2.50;;
15944;SDS011;30172;48.832;8.732;2023-06-01T02:21:14;3.83;;;2.63;;
15944;SDS011;30172;48.832;8.732;2023-06-01T02:23:39;4.77;;;2.20;;
15944;SDS011;30172;48.832;8.732;2023-06-01T02:26:05;4.77;;;3.10;;
15944;SDS011;30172;48.832;8.732;2023-06-01T02:28:31;5.00;;;2.73;;
15944;SDS011;30172;48.832;8.732;2023-06-01T02:30:56;6.93;;;2.80;;
15944;SDS011;30172;48.832;8.732;2023-06-01T02:33:22;4.43;;;2.60;;
15944;SDS011;30172;48.832;8.732;2023-06-01T02:35:49;6.30;;;2.60;;
15944;SDS011;30172;48.832;8.732;2023-06-01T02:38:15;3.78;;;2.58;;
15944;SDS011;30172;48.832;8.732;2023-06-01T02:40:40;3.93;;;2.77;;
15944;SDS011;30172;48.832;8.732;2023-06-01T02:43:06;5.60;;;2.80;;
15944;SDS011;30172;48.832;8.732;2023-06-01T02:45:31;7.60;;;2.73;;
15944;SDS011;30172;48.832;8.732;2023-06-01T02:47:56;5.13;;;3.00;;
15944;SDS011;30172;48.832;8.732;2023-06-01T02:50:21;5.27;;;2.70;;
15944;SDS011;30172;48.832;8.732;2023-06-01T02:52:47;6.60;;;3.03;;
15944;SDS011;30172;48.832;8.732;2023-06-01T02:55:13;6.53;;;2.80;;
15944;SDS011;30172;48.832;8.732;2023-06-01T02:57:38;7.37;;;3.00;;
15944;SDS011;30172;48.832;8.732;2023-06-01T03:00:04;6.80;;;2.90;;
15944;SDS011;30172;48.832;8.732;2023-06-01T03:02:40;5.07;;;2.67;;
15944;SDS011;30172;48.832;8.732;2023-06-01T03:05:06;5.03;;;3.07;;
15944;SDS011;30172;48.832;8.732;2023-06-01T03:07:31;3.87;;;2.70;;
15944;SDS011;30172;48.832;8.732;2023-06-01T03:09:57;7.47;;;3.20;;
15944;SDS011;30172;48.832;8.732;2023-06-01T03:12:22;4.10;;;2.67;;
15944;SDS011;30172;48.832;8.732;2023-06-01T03:14:47;6.43;;;3.27;;
15944;SDS011;30172;48.832;8.732;2023-06-01T03:17:13;6.27;;;3.23;;
15944;SDS011;30172;48.832;8.732;2023-06-01T03:19:38;4.70;;;2.60;;
15944;SDS011;30172;48.832;8.732;2023-06-01T03:22:03;5.30;;;3.33;;
15944;SDS011;30172;48.832;8.732;2023-06-01T03:24:28;4.13;;;2.67;;
15944;SDS011;30172;48.832;8.732;2023-06-01T03:26:54;7.53;;;2.93;;
15944;SDS011;30172;48.832;8.732;2023-06-01T03:29:20;4.13;;;3.10;;
15944;SDS011;30172;48.832;8.732;2023-06-01T03:31:46;5.07;;;3.17;;
15944;SDS011;30172;48.832;8.732;2023-06-01T03:34:11;5.20;;;3.07;;
15944;SDS011;30172;48.832;8.732;2023-06-01T03:36:36;4.97;;;2.60;;
15944;SDS011;30172;48.832;8.732;2023-06-01T03:39:02;3.90;;;2.80;;
15944;SDS011;30172;48.832;8.732;2023-06-01T03:41:33;7.47;;;3.10;;
15944;SDS011;30172;48.832;8.732;2023-06-01T03:43:58;5.20;;;2.80;;
15944;SDS011;30172;48.832;8.732;2023-06-01T03:46:23;4.80;;;2.93;;
15944;SDS011;30172;48.832;8.732;2023-06-01T03:48:49;5.00;;;2.60;;
15944;SDS011;30172;48.832;8.732;2023-06-01T03:51:16;6.23;;;2.70;;
15944;SDS011;30172;48.832;8.732;2023-06-01T03:53:41;5.40;;;3.00;;
15944;SDS011;30172;48.832;8.732;2023-06-01T03:56:06;5.53;;;3.00;;
15944;SDS011;30172;48.832;8.732;2023-06-01T03:58:32;4.32;;;3.08;;
15944;SDS011;30172;48.832;8.732;2023-06-01T04:00:57;4.80;;;2.80;;
15944;SDS011;30172;48.832;8.732;2023-06-01T04:03:22;6.45;;;2.90;;
15944;SDS011;30172;48.832;8.732;2023-06-01T04:05:49;6.72;;;2.90;;
15944;SDS011;30172;48.832;8.732;2023-06-01T04:08:23;3.75;;;2.92;;
15944;SDS011;30172;48.832;8.732;2023-06-01T04:10:49;4.90;;;2.85;;
15944;SDS011;30172;48.832;8.732;2023-06-01T04:13:15;5.22;;;2.60;;
15944;SDS011;30172;48.832;8.732;2023-06-01T04:15:40;5.40;;;2.70;;
15944;SDS011;30172;48.832;8.732;2023-06-01T04:18:06;4.30;;;2.70;;
15944;SDS011;30172;48.832;8.732;2023-06-01T04:20:31;6.07;;;2.58;;
15944;SDS011;30172;48.832;8.732;2023-06-01T04:22:57;4.28;;;2.92;;
15944;SDS011;30172;48.832;8.732;2023-06-01T04:25:22;4.93;;;2.80;;
15944;SDS011;30172;48.832;8.732;2023-06-01T04:27:48;3.60;;;2.50;;
15944;SDS011;30172;48.832;8.732;2023-06-01T04:30:16;5.13;;;2.63;;
15944;SDS011;30172;48.832;8.732;2023-06-01T04:32:41;3.60;;;2.70;;
15944;SDS011;30172;48.832;8.732;2023-06-01T04:35:09;7.78;;;2.50;;
15944;SDS011;30172;48.832;8.732;2023-06-01T04:37:35;6.20;;;3.17;;
15944;SDS011;30172;48.832;8.732;2023-06-01T04:40:07;4.50;;;3.20;;
15944;SDS011;30172;48.832;8.732;2023-06-01T04:42:34;4.50;;;2.80;;
15944;SDS011;30172;48.832;8.732;2023-06-01T04:45:06;3.47;;;2.78;;
15944;SDS011;30172;48.832;8.732;2023-06-01T04:47:32;6.38;;;3.10;;
15944;SDS011;30172;48.832;8.732;2023-06-01T04:50:04;4.43;;;3.15;;
15944;SDS011;30172;48.832;8.732;2023-06-01T04:52:35;3.85;;;2.58;;
15944;SDS011;30172;48.832;8.732;2023-06-01T04:55:02;4.00;;;3.22;;
15944;SDS011;30172;48.832;8.732;2023-06-01T04:57:29;8.07;;;3.05;;
15944;SDS011;30172;48.832;8.732;2023-06-01T04:59:55;5.47;;;3.03;;
15944;SDS011;30172;48.832;8.732;2023-06-01T05:02:22;5.07;;;2.95;;
15944;SDS011;30172;48.832;8.732;2023-06-01T05:04:47;5.03;;;2.85;;
15944;SDS011;30172;48.832;8.732;2023-06-01T05:07:13;5.28;;;2.95;;
15944;SDS011;30172;48.832;8.732;2023-06-01T05:09:38;5.20;;;2.90;;
15944;SDS011;30172;48.832;8.732;2023-06-01T05:12:03;5.97;;;2.72;;
15944;SDS011;30172;48.832;8.732;2023-06-01T05:14:29;5.57;;;2.67;;
15944;SDS011;30172;48.832;8.732;2023-06-01T05:16:54;5.45;;;2.90;;
15944;SDS011;30172;48.832;8.732;2023-06-01T05:19:20;7.00;;;2.50;;
15944;SDS011;30172;48.832;8.732;2023-06-01T05:21:46;7.45;;;3.00;;
15944;SDS011;30172;48.832;8.732;2023-06-01T05:24:12;3.92;;;2.22;;
15944;SDS011;30172;48.832;8.732;2023-06-01T05:26:37;5.18;;;2.47;;
15944;SDS011;30172;48.832;8.732;2023-06-01T05:29:02;3.45;;;2.60;;
15944;SDS011;30172;48.832;8.732;2023-06-01T05:31:28;3.45;;;2.65;;
15944;SDS011;30172;48.832;8.732;2023-06-01T05:33:54;5.60;;;2.58;;
15944;SDS011;30172;48.832;8.732;2023-06-01T05:36:20;3.97;;;2.65;;
15944;SDS011;30172;48.832;8.732;2023-06-01T05:38:45;7.03;;;2.58;;
15944;SDS011;30172;48.832;8.732;2023-06-01T05:41:11;6.07;;;2.92;;
15944;SDS011;30172;48.832;8.732;2023-06-01T05:43:36;4.50;;;3.05;;
15944;SDS011;30172;48.832;8.732;2023-06-01T05:46:02;5.45;;;2.90;;
15944;SDS011;30172;48.832;8.732;2023-06-01T05:48:27;3.53;;;2.90;;
15944;SDS011;30172;48.832;8.732;2023-06-01T05:50:53;7.90;;;2.67;;
15944;SDS011;30172;48.832;8.732;2023-06-01T05:53:18;5.72;;;3.22;;
15944;SDS011;30172;48.832;8.732;2023-06-01T05:55:43;3.63;;;2.83;;
15944;SDS011;30172;48.832;8.732;2023-06-01T05:58:09;4.18;;;2.53;;
15944;SDS011;30172;48.832;8.732;2023-06-01T06:00:35;4.70;;;2.80;;
15944;SDS011;30172;48.832;8.732;2023-06-01T06:03:00;6.78;;;3.13;;
15944;SDS011;30172;48.832;8.732;2023-06-01T06:05:25;4.35;;;3.08;;
15944;SDS011;30172;48.832;8.732;2023-06-01T06:07:51;3.22;;;2.78;;
15944;SDS011;30172;48.832;8.732;2023-06-01T06:10:16;7.82;;;3.13;;
15944;SDS011;30172;48.832;8.732;2023-06-01T06:12:41;5.57;;;2.78;;
15944;SDS011;30172;48.832;8.732;2023-06-01T06:15:07;5.90;;;3.17;;
15944;SDS011;30172;48.832;8.732;2023-06-01T06:17:32;5.35;;;2.88;;
15944;SDS011;30172;48.832;8.732;2023-06-01T06:19:58;6.78;;;2.75;;
15944;SDS011;30172;48.832;8.732;2023-06-01T06:22:23;5.68;;;3.10;;
15944;SDS011;30172;48.832;8.732;2023-06-01T06:24:48;6.85;;;3.08;;
15944;SDS011;30172;48.832;8.732;2023-06-01T06:27:14;6.03;;;3.28;;
15944;SDS011;30172;48.832;8.732;2023-06-01T06:29:39;4.97;;;2.92;;
15944;SDS011;30172;48.832;8.732;2023-06-01T06:32:05;5.22;;;2.95;;
15944;SDS011;30172;48.832;8.732;2023-06-01T06:34:30;3.58;;;2.83;;
15944;SDS011;30172;48.832;8.732;2023-06-01T06:37:01;6.72;;;3.08;;
15944;SDS011;30172;48.832;8.732;2023-06-01T06:39:36;4.85;;;2.92;;
15944;SDS011;30172;48.832;8.732;2023-06-01T06:42:02;5.68;;;3.55;;
15944;SDS011;30172;48.832;8.732;2023-06-01T06:44:28;5.18;;;2.70;;
15944;SDS011;30172;48.832;8.732;2023-06-01T06:46:53;3.88;;;3.15;;
15944;SDS011;30172;48.832;8.732;2023-06-01T06:49:19;5.25;;;3.38;;
15944;SDS011;30172;48.832;8.732;2023-06-01T06:51:44;4.55;;;3.58;;
15944;SDS011;30172;48.832;8.732;2023-06-01T06:54:11;5.82;;;3.13;;
15944;SDS011;30172;48.832;8.732;2023-06-01T06:56:36;3.72;;;2.88;;
15944;SDS011;30172;48.832;8.732;2023-06-01T06:59:01;5.28;;;3.38;;
15944;SDS011;30172;48.832;8.732;2023-06-01T07:01:27;4.38;;;2.60;;
15944;SDS011;30172;48.832;8.732;2023-06-01T07:03:52;5.72;;;3.10;;
15944;SDS011;30172;48.832;8.732;2023-06-01T07:06:18;7.38;;;3.10;;
15944;SDS011;30172;48.832;8.732;2023-06-01T07:08:43;4.05;;;3.08;;
15944;SDS011;30172;48.832;8.732;2023-06-01T07:11:09;8.45;;;3.50;;
15944;SDS011;30172;48.832;8.732;2023-06-01T07:13:34;5.10;;;3.42;;
15944;SDS011;30172;48.832;8.732;2023-06-01T07:16:00;9.30;;;3.60;;
15944;SDS011;30172;48.832;8.732;2023-06-01T07:18:26;6.05;;;3.63;;
15944;SDS011;30172;48.832;8.732;2023-06-01T07:20:51;5.97;;;3.60;;
15944;SDS011;30172;48.832;8.732;2023-06-01T07:23:16;5.20;;;3.28;;
15944;SDS011;30172;48.832;8.732;2023-06-01T07:25:42;4.82;;;3.35;;
15944;SDS011;30172;48.832;8.732;2023-06-01T07:28:07;4.70;;;3.47;;
15944;SDS011;30172;48.832;8.732;2023-06-01T07:30:33;6.13;;;3.33;;
15944;SDS011;30172;48.832;8.732;2023-06-01T07:32:59;6.60;;;3.72;;
15944;SDS011;30172;48.832;8.732;2023-06-01T07:35:24;6.97;;;3.38;;
15944;SDS011;30172;48.832;8.732;2023-06-01T07:37:50;5.85;;;3.45;;
15944;SDS011;30172;48.832;8.732;2023-06-01T07:40:16;6.65;;;3.30;;
15944;SDS011;30172;48.832;8.732;2023-06-01T07:42:41;4.13;;;3.25;;
15944;SDS011;30172;48.832;8.732;2023-06-01T07:45:06;7.28;;;3.50;;
15944;SDS011;30172;48.832;8.732;2023-06-01T07:47:34;4.85;;;3.40;;
15944;SDS011;30172;48.832;8.732;2023-06-01T07:49:59;4.97;;;3.45;;
15944;SDS011;30172;48.832;8.732;2023-06-01T07:52:24;7.20;;;3.70;;
15944;SDS011;30172;48.832;8.732;2023-06-01T07:54:50;5.45;;;3.80;;
15944;SDS011;30172;48.832;8.732;2023-06-01T07:57:16;6.30;;;3.30;;
15944;SDS011;30172;48.832;8.732;2023-06-01T07:59:41;4.18;;;3.35;;
15944;SDS011;30172;48.832;8.732;2023-06-01T08:02:07;6.57;;;3.50;;
15944;SDS011;30172;48.832;8.732;2023-06-01T08:04:32;4.03;;;3.45;;
15944;SDS011;30172;48.832;8.732;2023-06-01T08:07:00;5.22;;;3.15;;
15944;SDS011;30172;48.832;8.732;2023-06-01T08:09:28;5.65;;;3.67;;
15944;SDS011;30172;48.832;8.732;2023-06-01T08:11:53;8.82;;;3.83;;
15944;SDS011;30172;48.832;8.732;2023-06-01T08:14:18;6.07;;;3.72;;
15944;SDS011;30172;48.832;8.732;2023-06-01T08:16:44;7.93;;;3.08;;
15944;SDS011;30172;48.832;8.732;2023-06-01T08:19:10;6.90;;;3.90;;
15944;SDS011;30172;48.832;8.732;2023-06-01T08:21:36;6.65;;;3.38;;
15944;SDS011;30172;48.832;8.732;2023-06-01T08:24:01;8.90;;;3.90;;
15944;SDS011;30172;48.832;8.732;2023-06-01T08:26:27;5.43;;;3.28;;
15944;SDS011;30172;48.832;8.732;2023-06-01T08:28:53;7.15;;;3.78;;
15944;SDS011;30172;48.832;8.732;2023-06-01T08:31:22;6.85;;;3.13;;
15944;SDS011;30172;48.832;8.732;2023-06-01T08:33:48;8.27;;;4.18;;
15944;SDS011;30172;48.832;8.732;2023-06-01T08:36:14;5.22;;;3.28;;
15944;SDS011;30172;48.832;8.732;2023-06-01T08:38:40;7.72;;;3.97;;
15944;SDS011;30172;48.832;8.732;2023-06-01T08:44:02;8.80;;;4.63;;
15944;SDS011;30172;48.832;8.732;2023-06-01T08:46:28;5.30;;;4.05;;
15944;SDS011;30172;48.832;8.732;2023-06-01T08:48:56;5.15;;;3.92;;
15944;SDS011;30172;48.832;8.732;2023-06-01T08:51:22;7.00;;;4.22;;
15944;SDS011;30172;48.832;8.732;2023-06-01T08:53:49;5.90;;;4.05;;
15944;SDS011;30172;48.832;8.732;2023-06-01T08:56:15;7.45;;;4.78;;
15944;SDS011;30172;48.832;8.732;2023-06-01T08:58:40;6.03;;;4.28;;
15944;SDS011;30172;48.832;8.732;2023-06-01T09:01:06;9.25;;;4.30;;
15944;SDS011;30172;48.832;8.732;2023-06-01T09:03:32;7.50;;;4.47;;
15944;SDS011;30172;48.832;8.732;2023-06-01T09:05:57;6.95;;;4.30;;
15944;SDS011;30172;48.832;8.732;2023-06-01T09:08:23;8.98;;;5.00;;
15944;SDS011;30172;48.832;8.732;2023-06-01T09:10:49;6.65;;;4.40;;
15944;SDS011;30172;48.832;8.732;2023-06-01T09:13:27;8.55;;;4.18;;
15944;SDS011;30172;48.832;8.732;2023-06-01T09:15:55;7.25;;;4.35;;
15944;SDS011;30172;48.832;8.732;2023-06-01T09:18:21;10.48;;;5.13;;
15944;SDS011;30172;48.832;8.732;2023-06-01T09:20:46;6.90;;;4.70;;
15944;SDS011;30172;48.832;8.732;2023-06-01T09:23:12;6.43;;;4.57;;
15944;SDS011;30172;48.832;8.732;2023-06-01T09:25:48;6.85;;;4.88;;
15944;SDS011;30172;48.832;8.732;2023-06-01T09:28:28;6.78;;;4.32;;
15944;SDS011;30172;48.832;8.732;2023-06-01T09:30:55;6.78;;;5.15;;
15944;SDS011;30172;48.832;8.732;2023-06-01T09:33:20;6.72;;;4.30;;
15944;SDS011;30172;48.832;8.732;2023-06-01T09:35:46;11.38;;;4.60;;
15944;SDS011;30172;48.832;8.732;2023-06-01T09:38:22;5.97;;;4.47;;
15944;SDS011;30172;48.832;8.732;2023-06-01T09:40:58;6.82;;;4.53;;
15944;SDS011;30172;48.832;8.732;2023-06-01T09:43:25;5.78;;;4.70;;
15944;SDS011;30172;48.832;8.732;2023-06-01T09:46:07;6.93;;;5.00;;
15944;SDS011;30172;48.832;8.732;2023-06-01T09:48:33;7.15;;;5.28;;
15944;SDS011;30172;48.832;8.732;2023-06-01T09:50:59;8.75;;;4.72;;
15944;SDS011;30172;48.832;8.732;2023-06-01T09:53:25;6.63;;;5.20;;
15944;SDS011;30172;48.832;8.732;2023-06-01T09:55:57;8.07;;;4.97;;
15944;SDS011;30172;48.832;8.732;2023-06-01T09:58:23;7.90;;;4.53;;
15944;SDS011;30172;48.832;8.732;2023-06-01T10:00:49;6.93;;;5.43;;
15944;SDS011;30172;48.832;8.732;2023-06-01T10:03:15;6.30;;;5.25;;
15944;SDS011;30172;48.832;8.732;2023-06-01T10:05:44;7.43;;;4.85;;
15944;SDS011;30172;48.832;8.732;2023-06-01T10:08:11;6.57;;;4.88;;
15944;SDS011;30172;48.832;8.732;2023-06-01T10:10:37;9.35;;;5.25;;
15944;SDS011;30172;48.832;8.732;2023-06-01T10:13:03;5.50;;;4.72;;
15944;SDS011;30172;48.832;8.732;2023-06-01T10:15:28;9.10;;;4.80;;
15944;SDS011;30172;48.832;8.732;2023-06-01T10:17:54;9.02;;;4.85;;
15944;SDS011;30172;48.832;8.732;2023-06-01T10:20:20;6.35;;;5.07;;
15944;SDS011;30172;48.832;8.732;2023-06-01T10:22:45;6.45;;;5.03;;
15944;SDS011;30172;48.832;8.732;2023-06-01T10:25:11;9.65;;;4.55;;
15944;SDS011;30172;48.832;8.732;2023-06-01T10:27:39;7.72;;;5.22;;
15944;SDS011;30172;48.832;8.732;2023-06-01T10:30:08;6.10;;;4.82;;
15944;SDS011;30172;48.832;8.732;2023-06-01T10:35:02;9.30;;;5.15;;
15944;SDS011;30172;48.832;8.732;2023-06-01T10:37:28;10.70;;;5.78;;
15944;SDS011;30172;48.832;8.732;2023-06-01T10:40:09;11.07;;;4.93;;
15944;SDS011;30172;48.832;8.732;2023-06-01T10:42:39;6.38;;;4.95;;
15944;SDS011;30172;48.832;8.732;2023-06-01T10:45:05;8.63;;;4.85;;
15944;SDS011;30172;48.832;8.732;2023-06-01T10:52:26;8.32;;;4.60;;
15944;SDS011;30172;48.832;8.732;2023-06-01T10:54:52;6.72;;;4.85;;
15944;SDS011;30172;48.832;8.732;2023-06-01T10:57:19;6.70;;;5.10;;
15944;SDS011;30172;48.832;8.732;2023-06-01T11:00:07;5.07;;;4.32;;
15944;SDS011;30172;48.832;8.732;2023-06-01T11:02:48;8.98;;;5.00;;
15944;SDS011;30172;48.832;8.732;2023-06-01T11:05:33;10.00;;;5.28;;
15944;SDS011;30172;48.832;8.732;2023-06-01T11:13:18;7.90;;;4.53;;
15944;SDS011;30172;48.832;8.732;2023-06-01T11:21:07;4.90;;;4.40;;
15944;SDS011;30172;48.832;8.732;2023-06-01T11:23:34;7.43;;;4.68;;
15944;SDS011;30172;48.832;8.732;2023-06-01T11:25:59;7.30;;;4.80;;
15944;SDS011;30172;48.832;8.732;2023-06-01T11:28:26;11.88;;;5.70;;
15944;SDS011;30172;48.832;8.732;2023-06-01T11:30:52;6.05;;;4.70;;
15944;SDS011;30172;48.832;8.732;2023-06-01T11:33:18;6.53;;;4.40;;
15944;SDS011;30172;48.832;8.732;2023-06-01T11:35:44;8.90;;;4.65;;
15944;SDS011;30172;48.832;8.732;2023-06-01T11:38:09;8.77;;;4.75;;
15944;SDS011;30172;48.832;8.732;2023-06-01T11:40:34;7.50;;;4.22;;
15944;SDS011;30172;48.832;8.732;2023-06-01T11:43:00;7.50;;;4.85;;
15944;SDS011;30172;48.832;8.732;2023-06-01T11:45:25;6.95;;;4.35;;
15944;SDS011;30172;48.832;8.732;2023-06-01T11:47:52;8.50;;;4.55;;
15944;SDS011;30172;48.832;8.732;2023-06-01T11:50:23;6.22;;;4.38;;
15944;SDS011;30172;48.832;8.732;2023-06-01T11:52:51;5.68;;;4.78;;
15944;SDS011;30172;48.832;8.732;2023-06-01T11:55:17;5.40;;;4.50;;
15944;SDS011;30172;48.832;8.732;2023-06-01T11:57:42;12.57;;;4.35;;
15944;SDS011;30172;48.832;8.732;2023-06-01T12:00:11;7.65;;;4.97;;
15944;SDS011;30172;48.832;8.732;2023-06-01T12:02:37;5.30;;;4.78;;
15944;SDS011;30172;48.832;8.732;2023-06-01T12:05:04;6.47;;;4.35;;
15944;SDS011;30172;48.832;8.732;2023-06-01T12:10:10;7.93;;;4.70;;
15944;SDS011;30172;48.832;8.732;2023-06-01T12:12:38;6.25;;;4.95;;
15944;SDS011;30172;48.832;8.732;2023-06-01T12:15:04;6.95;;;4.72;;
15944;SDS011;30172;48.832;8.732;2023-06-01T12:17:46;6.82;;;4.82;;
15944;SDS011;30172;48.832;8.732;2023-06-01T12:20:24;7.05;;;4.32;;
15944;SDS011;30172;48.832;8.732;2023-06-01T12:22:52;6.00;;;4.70;;
15944;SDS011;30172;48.832;8.732;2023-06-01T12:25:20;9.18;;;4.70;;
15944;SDS011;30172;48.832;8.732;2023-06-01T12:28:07;6.78;;;4.80;;
15944;SDS011;30172;48.832;8.732;2023-06-01T12:30:33;6.38;;;5.28;;
15944;SDS011;30172;48.832;8.732;2023-06-01T12:32:59;10.38;;;4.70;;
15944;SDS011;30172;48.832;8.732;2023-06-01T12:35:25;6.20;;;4.78;;
15944;SDS011;30172;48.832;8.732;2023-06-01T12:38:03;6.72;;;4.53;;
15944;SDS011;30172;48.832;8.732;2023-06-01T12:40:32;6.93;;;4.68;;
15944;SDS011;30172;48.832;8.732;2023-06-01T12:43:01;6.47;;;5.10;;
15944;SDS011;30172;48.832;8.732;2023-06-01T12:45:34;10.65;;;4.57;;
15944;SDS011;30172;48.832;8.732;2023-06-01T12:48:01;7.15;;;4.53;;
15944;SDS011;30172;48.832;8.732;2023-06-01T12:50:26;8.63;;;4.68;;
15944;SDS011;30172;48.832;8.732;2023-06-01T12:52:51;7.30;;;4.90;;
15944;SDS011;30172;48.832;8.732;2023-06-01T12:55:17;4.88;;;4.20;;
15944;SDS011;30172;48.832;8.732;2023-06-01T12:57:43;7.05;;;4.72;;
15944;SDS011;30172;48.832;8.732;2023-06-01T13:00:08;5.72;;;4.57;;
15944;SDS011;30172;48.832;8.732;2023-06-01T13:02:34;7.38;;;4.40;;
15944;SDS011;30172;48.832;8.732;2023-06-01T13:04:59;6.57;;;4.60;;
15944;SDS011;30172;48.832;8.732;2023-06-01T13:07:25;7.50;;;3.90;;
15944;SDS011;30172;48.832;8.732;2023-06-01T13:09:50;4.45;;;4.00;;
15944;SDS011;30172;48.832;8.732;2023-06-01T13:12:16;7.45;;;4.20;;
15944;SDS011;30172;48.832;8.732;2023-06-01T13:14:42;6.95;;;3.60;;
15944;SDS011;30172;48.832;8.732;2023-06-01T13:17:07;5.07;;;3.60;;
15944;SDS011;30172;48.832;8.732;2023-06-01T13:19:33;5.90;;;3.67;;
15944;SDS011;30172;48.832;8.732;2023-06-01T13:21:58;6.03;;;3.63;;
15944;SDS011;30172;48.832;8.732;2023-06-01T13:24:23;9.63;;;4.20;;
15944;SDS011;30172;48.832;8.732;2023-06-01T13:26:49;7.38;;;3.88;;
15944;SDS011;30172;48.832;8.732;2023-06-01T13:29:14;5.22;;;3.70;;
15944;SDS011;30172;48.832;8.732;2023-06-01T13:31:40;5.18;;;3.60;;
15944;SDS011;30172;48.832;8.732;2023-06-01T13:34:05;5.63;;;3.67;;
15944;SDS011;30172;48.832;8.732;2023-06-01T13:36:30;5.18;;;3.92;;
15944;SDS011;30172;48.832;8.732;2023-06-01T13:38:56;6.65;;;4.00;;
15944;SDS011;30172;48.832;8.732;2023-06-01T13:41:22;6.45;;;4.10;;
15944;SDS011;30172;48.832;8.732;2023-06-01T13:43:47;8.65;;;3.65;;
15944;SDS011;30172;48.832;8.732;2023-06-01T13:46:13;5.15;;;3.63;;
15944;SDS011;30172;48.832;8.732;2023-06-01T13:48:38;6.20;;;3.47;;
15944;SDS011;30172;48.832;8.732;2023-06-01T13:51:04;4.68;;;3.40;;
15944;SDS011;30172;48.832;8.732;2023-06-01T13:53:30;5.07;;;3.35;;
15944;SDS011;30172;48.832;8.732;2023-06-01T13:55:56;8.32;;;4.07;;
15944;SDS011;30172;48.832;8.732;2023-06-01T13:58:21;4.82;;;3.75;;
15944;SDS011;30172;48.832;8.732;2023-06-01T14:00:47;5.75;;;3.20;;
15944;SDS011;30172;48.832;8.732;2023-06-01T14:03:12;7.65;;;3.85;;
15944;SDS011;30172;48.832;8.732;2023-06-01T14:05:37;5.88;;;3.03;;
15944;SDS011;30172;48.832;8.732;2023-06-01T14:08:03;5.13;;;3.38;;
15944;SDS011;30172;48.832;8.732;2023-06-01T14:10:29;6.05;;;3.20;;
15944;SDS011;30172;48.832;8.732;2023-06-01T14:12:56;4.10;;;3.25;;
15944;SDS011;30172;48.832;8.732;2023-06-01T14:15:21;4.38;;;3.70;;
15944;SDS011;30172;48.832;8.732;2023-06-01T14:17:46;6.50;;;3.00;;
15944;SDS011;30172;48.832;8.732;2023-06-01T14:20:12;5.05;;;3.33;;
15944;SDS011;30172;48.832;8.732;2023-06-01T14:22:37;6.00;;;3.33;;
15944;SDS011;30172;48.832;8.732;2023-06-01T14:25:02;4.88;;;3.40;;
15944;SDS011;30172;48.832;8.732;2023-06-01T14:27:28;6.72;;;3.33;;
15944;SDS011;30172;48.832;8.732;2023-06-01T14:29:53;3.70;;;3.22;;
15944;SDS011;30172;48.832;8.732;2023-06-01T14:32:18;5.57;;;2.80;;
15944;SDS011;30172;48.832;8.732;2023-06-01T14:34:44;3.38;;;2.95;;
15944;SDS011;30172;48.832;8.732;2023-06-01T14:37:09;8.20;;;3.17;;
15944;SDS011;30172;48.832;8.732;2023-06-01T14:39:37;6.47;;;2.75;;
15944;SDS011;30172;48.832;8.732;2023-06-01T14:42:03;5.30;;;3.13;;
15944;SDS011;30172;48.832;8.732;2023-06-01T14:44:28;4.78;;;2.80;;
15944;SDS011;30172;48.832;8.732;2023-06-01T14:46:53;4.70;;;2.42;;
15944;SDS011;30172;48.832;8.732;2023-06-01T14:49:19;5.13;;;2.80;;
15944;SDS011;30172;48.832;8.732;2023-06-01T14:51:44;3.28;;;2.83;;
15944;SDS011;30172;48.832;8.732;2023-06-01T14:54:09;4.80;;;2.72;;
15944;SDS011;30172;48.832;8.732;2023-06-01T14:56:35;3.95;;;2.97;;
15944;SDS011;30172;48.832;8.732;2023-06-01T14:59:00;5.20;;;2.80;;
15944;SDS011;30172;48.832;8.732;2023-06-01T15:01:25;3.72;;;2.80;;
15944;SDS011;30172;48.832;8.732;2023-06-01T15:03:51;3.47;;;2.47;;
15944;SDS011;30172;48.832;8.732;2023-06-01T15:06:16;4.28;;;2.70;;
15944;SDS011;30172;48.832;8.732;2023-06-01T15:08:41;6.60;;;2.85;;
15944;SDS011;30172;48.832;8.732;2023-06-01T15:11:07;4.47;;;2.70;;
15944;SDS011;30172;48.832;8.732;2023-06-01T15:13:32;4.82;;;2.80;;
15944;SDS011;30172;48.832;8.732;2023-06-01T15:15:57;3.88;;;2.65;;
15944;SDS011;30172;48.832;8.732;2023-06-01T15:18:23;5.88;;;2.60;;
15944;SDS011;30172;48.832;8.732;2023-06-01T15:20:48;3.78;;;2.33;;